Time;durP1;ratioP1;P1;durP2;ratioP2;P2;SDS_P1;SDS_P2;PMS_P1;PMS_P2;Temp;Humidity;BMP_temperature;BMP_pressure;BME280_temperature;BME280_humidity;BME280_pressure;Samples;Min_cycle;Max_cycle;Signal;HPM_P1;HPM_P2
2024/04/23 00:02:06;;;;;;;15.45;8.32;;;6.80;68.20;;;;;;5314453;27;20009;-95
2024/04/23 00:04:33;;;;;;;10.55;7.10;;;6.70;68.00;;;;;;5284522;27;20077;-94
2024/04/23 00:07:01;;;;;;;10.55;7.70;;;6.70;68.10;;;;;;5280691;27;20006;-95
2024/04/23 00:09:29;;;;;;;9.95;7.00;;;6.70;68.80;;;;;;5306483;27;20065;-95
2024/04/23 00:11:56;;;;;;;9.77;6.90;;;6.60;68.60;;;;;;5280571;27;20477;-94
2024/04/23 00:14:28;;;;;;;9.48;7.25;;;6.60;69.20;;;;;;5274603;27;20069;-94
2024/04/23 00:16:59;;;;;;;10.05;7.00;;;6.60;69.20;;;;;;5299227;27;20457;-95
2024/04/23 00:19:26;;;;;;;10.23;6.57;;;6.60;69.60;;;;;;5291816;27;20009;-94
2024/04/23 00:21:54;;;;;;;12.27;7.05;;;6.60;68.40;;;;;;5286289;27;19998;-94
2024/04/23 00:24:21;;;;;;;12.88;7.65;;;6.60;68.20;;;;;;5286616;27;20006;-95
2024/04/23 00:27:07;;;;;;;7.70;6.00;;;6.60;68.80;;;;;;5280241;27;20002;-95
2024/04/23 00:29:36;;;;;;;10.95;6.38;;;6.60;68.20;;;;;;5280156;27;20030;-95
2024/04/23 00:32:08;;;;;;;10.20;6.90;;;6.50;68.00;;;;;;5258263;27;20073;-93
2024/04/23 00:34:37;;;;;;;8.48;6.28;;;6.50;68.50;;;;;;5286343;27;20004;-94
2024/04/23 00:37:04;;;;;;;8.20;5.82;;;6.50;68.00;;;;;;5280120;27;20463;-94
2024/04/23 00:39:31;;;;;;;7.55;5.07;;;6.50;67.10;;;;;;5252247;27;20072;-94
2024/04/23 00:42:01;;;;;;;11.80;5.22;;;6.40;67.10;;;;;;5263035;27;20327;-94
2024/04/23 00:44:28;;;;;;;5.80;4.95;;;6.40;67.20;;;;;;5284196;27;20022;-94
2024/04/23 00:46:55;;;;;;;7.07;5.57;;;6.40;67.20;;;;;;5277691;27;20027;-93
2024/04/23 00:49:23;;;;;;;7.72;5.30;;;6.30;67.90;;;;;;5252249;27;19999;-93
2024/04/23 00:51:51;;;;;;;7.53;4.82;;;6.30;68.10;;;;;;5258769;27;20005;-94
2024/04/23 00:54:22;;;;;;;6.50;5.28;;;6.30;68.80;;;;;;5286986;27;20010;-92
2024/04/23 00:56:52;;;;;;;6.47;5.28;;;6.20;68.90;;;;;;5297629;27;20002;-93
2024/04/23 00:59:20;;;;;;;7.40;5.13;;;6.20;69.30;;;;;;5271262;27;20049;-95
2024/04/23 01:01:49;;;;;;;7.35;4.80;;;6.10;69.60;;;;;;5271252;27;20014;-93
2024/04/23 01:04:19;;;;;;;6.95;5.65;;;6.10;70.10;;;;;;5292731;27;19998;-94
2024/04/23 01:06:49;;;;;;;8.38;5.05;;;6.10;70.60;;;;;;5279884;27;20013;-94
2024/04/23 01:09:23;;;;;;;7.70;5.43;;;6.00;70.50;;;;;;5279659;27;20002;-93
2024/04/23 01:11:51;;;;;;;6.47;5.13;;;6.00;71.20;;;;;;5285657;27;20010;-94
2024/04/23 01:14:18;;;;;;;6.47;5.15;;;6.00;71.40;;;;;;5281308;27;20002;-94
2024/04/23 01:16:47;;;;;;;7.70;5.53;;;6.00;71.50;;;;;;5279747;27;20067;-94
2024/04/23 01:19:34;;;;;;;7.90;5.15;;;5.90;72.00;;;;;;5285707;27;20009;-92
2024/04/23 01:22:11;;;;;;;12.23;5.38;;;5.90;72.40;;;;;;5270100;27;20010;-94
2024/04/23 01:24:51;;;;;;;8.30;5.65;;;5.80;71.90;;;;;;5279932;27;20440;-95
2024/04/23 01:27:19;;;;;;;6.25;4.78;;;5.80;72.70;;;;;;5267101;27;20010;-94
2024/04/23 01:29:48;;;;;;;8.63;5.82;;;5.80;73.00;;;;;;5252297;27;20010;-94
2024/04/23 01:32:16;;;;;;;8.68;5.47;;;5.80;72.70;;;;;;5279085;27;20012;-94
2024/04/23 01:34:45;;;;;;;8.05;5.35;;;5.80;73.20;;;;;;5245917;27;20316;-93
2024/04/23 01:37:12;;;;;;;8.85;5.55;;;5.70;73.10;;;;;;5280772;27;20084;-95
2024/04/23 01:39:40;;;;;;;9.52;5.20;;;5.70;73.50;;;;;;5279184;27;19998;-93
2024/04/23 01:42:08;;;;;;;10.10;6.13;;;5.70;74.10;;;;;;5273508;27;20011;-94
2024/04/23 01:44:36;;;;;;;8.10;5.80;;;5.70;74.70;;;;;;5262753;27;20433;-94
2024/04/23 01:47:03;;;;;;;9.50;6.00;;;5.60;74.30;;;;;;5279167;27;20002;-93
2024/04/23 01:49:31;;;;;;;6.13;5.00;;;5.60;75.40;;;;;;5269617;27;20030;-93
2024/04/23 01:51:59;;;;;;;7.47;5.30;;;5.60;75.20;;;;;;5267579;27;19999;-92
2024/04/23 01:54:26;;;;;;;7.80;5.78;;;5.60;74.30;;;;;;5274365;27;20003;-93
2024/04/23 01:56:55;;;;;;;8.52;5.63;;;5.60;74.00;;;;;;5261785;27;20007;-93
2024/04/23 01:59:22;;;;;;;8.27;5.10;;;5.60;74.30;;;;;;5277280;27;20069;-92
2024/04/23 02:01:53;;;;;;;6.93;5.28;;;5.60;76.00;;;;;;5288366;27;20013;-92
2024/04/23 02:04:22;;;;;;;7.30;5.55;;;5.60;76.50;;;;;;5282377;27;20448;-92
2024/04/23 02:06:50;;;;;;;9.13;6.00;;;5.60;77.10;;;;;;5275513;27;20010;-93
2024/04/23 02:09:17;;;;;;;7.32;5.35;;;5.60;77.20;;;;;;5275807;27;20433;-94
2024/04/23 02:11:44;;;;;;;7.63;5.22;;;5.60;78.30;;;;;;5279016;27;20002;-92
2024/04/23 02:14:11;;;;;;;6.75;5.35;;;5.60;77.10;;;;;;5288916;27;20441;-93
2024/04/23 02:16:41;;;;;;;9.98;5.53;;;5.60;77.80;;;;;;5264945;27;20027;-93
2024/04/23 02:19:10;;;;;;;10.52;5.35;;;5.60;77.60;;;;;;5277558;27;20010;-92
2024/04/23 02:21:37;;;;;;;6.57;5.40;;;5.60;77.30;;;;;;5291960;27;20060;-93
2024/04/23 02:24:04;;;;;;;7.80;5.72;;;5.60;77.40;;;;;;5278449;27;20011;-93
2024/04/23 02:26:31;;;;;;;9.10;5.85;;;5.60;77.00;;;;;;5286270;27;20071;-93
2024/04/23 02:28:58;;;;;;;6.75;5.78;;;5.50;76.10;;;;;;5247020;27;20009;-93
2024/04/23 02:31:27;;;;;;;9.13;6.15;;;5.50;71.50;;;;;;5282660;27;19998;-94
2024/04/23 02:33:55;;;;;;;9.63;5.88;;;5.50;70.50;;;;;;5292068;27;20005;-92
2024/04/23 02:36:22;;;;;;;8.50;5.40;;;5.50;70.30;;;;;;5272162;27;20077;-94
2024/04/23 02:38:49;;;;;;;8.75;6.07;;;5.40;69.60;;;;;;5278609;27;19995;-93
2024/04/23 02:41:16;;;;;;;10.70;6.15;;;5.50;70.20;;;;;;5278387;27;19999;-92
2024/04/23 02:43:43;;;;;;;8.75;6.18;;;5.50;69.40;;;;;;5278297;27;19999;-93
2024/04/23 02:46:10;;;;;;;11.00;6.50;;;5.40;68.50;;;;;;5296072;27;20013;-93
2024/04/23 02:48:37;;;;;;;8.90;5.53;;;5.40;68.90;;;;;;5271455;27;20010;-93
2024/04/23 02:51:05;;;;;;;9.32;5.50;;;5.40;69.60;;;;;;5271970;27;19998;-95
2024/04/23 02:53:32;;;;;;;7.82;5.63;;;5.40;68.50;;;;;;5254810;27;20009;-92
2024/04/23 02:56:01;;;;;;;9.07;6.68;;;5.40;69.00;;;;;;5276821;27;20077;-94
2024/04/23 02:58:28;;;;;;;9.07;6.47;;;5.40;67.20;;;;;;5261862;27;20046;-93
2024/04/23 03:00:55;;;;;;;9.25;5.72;;;5.40;68.10;;;;;;5262794;27;20013;-93
2024/04/23 03:03:22;;;;;;;8.68;6.03;;;5.40;68.50;;;;;;5281792;27;19998;-93
2024/04/23 03:05:49;;;;;;;7.68;5.93;;;5.40;67.90;;;;;;5278022;27;19998;-93
2024/04/23 03:08:16;;;;;;;9.82;6.57;;;5.40;68.10;;;;;;5280332;27;19998;-93
2024/04/23 03:10:47;;;;;;;9.18;6.03;;;5.40;68.00;;;;;;5264585;27;20015;-92
2024/04/23 03:13:14;;;;;;;9.35;6.30;;;5.40;66.30;;;;;;5303617;27;20485;-92
2024/04/23 03:15:41;;;;;;;10.52;7.15;;;5.40;66.60;;;;;;5265400;27;20097;-91
2024/04/23 03:18:09;;;;;;;8.60;6.07;;;5.30;66.90;;;;;;5303029;27;20507;-93
2024/04/23 03:20:36;;;;;;;9.30;6.35;;;5.30;67.30;;;;;;5296141;27;20041;-93
2024/04/23 03:23:06;;;;;;;12.30;6.25;;;5.30;66.00;;;;;;5270412;27;20153;-93
2024/04/23 03:25:35;;;;;;;8.77;6.00;;;5.30;65.90;;;;;;5308460;27;20001;-94
2024/04/23 03:28:07;;;;;;;9.15;6.45;;;5.30;65.60;;;;;;5281080;27;20329;-93
2024/04/23 03:30:34;;;;;;;10.10;6.10;;;5.30;65.60;;;;;;5282621;27;20022;-92
2024/04/23 03:33:08;;;;;;;8.38;6.15;;;5.30;65.30;;;;;;5266233;27;20010;-92
2024/04/23 03:35:38;;;;;;;8.00;6.05;;;5.20;65.60;;;;;;5280931;27;19999;-93
2024/04/23 03:38:05;;;;;;;6.68;5.60;;;5.20;65.10;;;;;;5285461;27;20009;-92
2024/04/23 03:40:35;;;;;;;9.70;6.45;;;5.20;65.10;;;;;;5294212;27;20006;-93
2024/04/23 03:43:02;;;;;;;8.40;6.68;;;5.20;65.60;;;;;;5248096;27;20026;-93
2024/04/23 03:45:31;;;;;;;15.23;6.80;;;5.20;65.40;;;;;;5286180;27;20006;-93
2024/04/23 03:47:59;;;;;;;10.00;6.88;;;5.10;65.40;;;;;;5275538;27;20023;-93
2024/04/23 03:50:27;;;;;;;10.48;6.60;;;5.10;65.50;;;;;;5297665;27;20326;-92
2024/04/23 03:52:54;;;;;;;9.40;6.72;;;5.00;65.70;;;;;;5256435;27;19999;-93
2024/04/23 03:55:21;;;;;;;11.90;6.95;;;5.00;66.20;;;;;;5288616;27;20002;-93
2024/04/23 03:57:48;;;;;;;13.38;6.95;;;4.90;67.40;;;;;;5273887;27;20405;-93
2024/04/23 04:00:15;;;;;;;11.85;7.40;;;5.00;68.40;;;;;;5282833;27;20072;-93
2024/04/23 04:08:15;;;;;;;11.70;8.32;;;4.90;70.70;;;;;;5315611;27;20013;-94
2024/04/23 04:10:42;;;;;;;12.15;7.35;;;4.90;71.10;;;;;;5278982;27;20050;-92
2024/04/23 04:13:09;;;;;;;9.52;7.90;;;4.90;71.10;;;;;;5286812;27;20520;-92
2024/04/23 04:15:49;;;;;;;10.07;7.60;;;4.80;72.30;;;;;;5283195;27;20066;-93
2024/04/23 04:18:20;;;;;;;11.07;8.20;;;4.80;71.00;;;;;;5269378;27;20442;-94
2024/04/23 04:20:49;;;;;;;12.88;7.63;;;4.80;71.80;;;;;;5277795;27;20072;-93
2024/04/23 04:23:16;;;;;;;10.90;8.05;;;4.80;71.50;;;;;;5289948;27;20069;-93
2024/04/23 04:25:43;;;;;;;9.63;7.63;;;4.80;70.30;;;;;;5294709;27;20014;-93
2024/04/23 04:28:10;;;;;;;10.27;8.02;;;4.80;70.40;;;;;;5262273;27;20453;-93
2024/04/23 04:30:39;;;;;;;15.20;8.45;;;4.80;70.40;;;;;;5269332;27;20011;-93
2024/04/23 04:33:06;;;;;;;11.30;8.63;;;4.80;70.30;;;;;;5274533;27;20344;-93
2024/04/23 04:35:33;;;;;;;9.70;7.93;;;4.80;71.10;;;;;;5284714;27;20132;-93
2024/04/23 04:38:00;;;;;;;9.95;7.75;;;4.80;70.60;;;;;;5255223;27;20008;-93
2024/04/23 04:40:27;;;;;;;11.20;8.05;;;4.80;71.10;;;;;;5286278;27;19998;-93
2024/04/23 04:42:55;;;;;;;13.02;8.23;;;4.80;72.80;;;;;;5274700;27;20035;-94
2024/04/23 04:45:22;;;;;;;11.48;8.20;;;4.80;73.40;;;;;;5296560;27;20017;-95
2024/04/23 04:47:49;;;;;;;14.02;8.70;;;4.90;73.20;;;;;;5260229;27;20446;-94
2024/04/23 04:50:17;;;;;;;10.55;8.13;;;4.90;73.40;;;;;;5276860;27;20027;-94
2024/04/23 04:52:45;;;;;;;13.75;8.48;;;4.90;74.10;;;;;;5309104;27;20029;-94
2024/04/23 04:55:12;;;;;;;11.65;8.00;;;4.90;74.70;;;;;;5281208;27;20030;-94
2024/04/23 04:57:44;;;;;;;12.95;8.93;;;4.90;75.90;;;;;;5280130;27;20010;-93
2024/04/23 05:00:12;;;;;;;12.35;8.93;;;4.90;76.80;;;;;;5275433;27;20074;-94
2024/04/23 05:02:39;;;;;;;12.48;8.98;;;4.90;77.00;;;;;;5260520;27;20018;-93
2024/04/23 05:05:08;;;;;;;14.90;9.90;;;4.80;77.90;;;;;;5279950;27;20009;-94
2024/04/23 05:07:36;;;;;;;13.68;9.65;;;4.90;79.70;;;;;;5266921;27;20010;-94
2024/04/23 05:10:03;;;;;;;17.15;10.05;;;4.90;81.20;;;;;;5279629;27;20005;-94
2024/04/23 05:12:37;;;;;;;12.38;9.48;;;4.90;81.70;;;;;;5286116;27;20018;-93
2024/04/23 05:15:05;;;;;;;16.33;10.25;;;4.80;81.20;;;;;;5274364;27;20077;-93
2024/04/23 05:17:32;;;;;;;17.52;10.88;;;4.80;82.80;;;;;;5274089;27;20073;-94
2024/04/23 05:19:59;;;;;;;14.02;10.57;;;4.80;84.40;;;;;;5279756;27;20076;-94
2024/04/23 05:22:27;;;;;;;14.40;10.38;;;4.80;84.60;;;;;;5263046;27;20077;-94
2024/04/23 05:24:54;;;;;;;16.50;11.38;;;4.80;84.80;;;;;;5267938;27;20457;-94
2024/04/23 05:27:21;;;;;;;14.77;11.45;;;4.80;86.30;;;;;;5257851;27;20089;-93
2024/04/23 05:29:53;;;;;;;14.70;11.85;;;4.80;85.40;;;;;;5265045;27;20524;-93
2024/04/23 05:35:12;;;;;;;17.05;11.75;;;4.80;86.20;;;;;;5280989;27;20393;-93
2024/04/23 05:37:42;;;;;;;19.15;12.77;;;4.80;86.20;;;;;;5272338;27;20022;-94
2024/04/23 05:40:12;;;;;;;22.85;12.20;;;4.80;87.40;;;;;;5260146;27;20027;-94
2024/04/23 05:42:39;;;;;;;18.23;12.38;;;4.80;88.20;;;;;;5270058;27;20086;-92
2024/04/23 05:45:09;;;;;;;20.40;13.25;;;4.80;89.10;;;;;;5245783;27;20015;-93
2024/04/23 05:48:13;;;;;;;17.70;12.85;;;4.80;89.50;;;;;;5264776;27;20010;-92
2024/04/23 05:51:18;;;;;;;19.42;13.10;;;4.90;89.40;;;;;;5264103;27;20006;-92
2024/04/23 05:54:23;;;;;;;18.10;13.05;;;4.90;90.10;;;;;;5270832;27;20007;-93
2024/04/23 05:56:52;;;;;;;19.42;13.50;;;4.90;89.20;;;;;;5281738;27;20002;-94
2024/04/23 05:59:19;;;;;;;23.40;15.00;;;4.90;90.70;;;;;;5265296;27;20018;-93
2024/04/23 06:01:46;;;;;;;19.88;14.20;;;5.00;91.20;;;;;;5249402;27;20018;-94
2024/04/23 06:04:14;;;;;;;20.42;14.10;;;5.00;91.00;;;;;;5274037;27;20007;-95
2024/04/23 06:06:41;;;;;;;18.70;14.18;;;5.10;90.40;;;;;;5273882;27;20316;-95
2024/04/23 06:09:08;;;;;;;18.52;14.15;;;5.20;91.10;;;;;;5219150;27;20003;-94
2024/04/23 06:11:35;;;;;;;21.08;14.95;;;5.20;90.90;;;;;;5246374;27;20051;-93
2024/04/23 06:14:09;;;;;;;21.45;15.35;;;5.20;90.80;;;;;;5286189;27;20002;-95
2024/04/23 06:16:41;;;;;;;23.15;15.48;;;5.30;90.50;;;;;;5283550;27;20333;-94
2024/04/23 06:19:08;;;;;;;21.23;14.25;;;5.50;90.60;;;;;;5266540;27;20010;-94
2024/04/23 06:21:35;;;;;;;19.00;13.90;;;5.50;91.10;;;;;;5255109;27;20030;-94
2024/04/23 06:24:02;;;;;;;18.08;13.70;;;5.60;89.40;;;;;;5273688;27;20002;-95
2024/04/23 06:26:29;;;;;;;19.92;14.27;;;5.70;88.30;;;;;;5250876;27;20014;-94
2024/04/23 06:28:57;;;;;;;18.40;13.75;;;5.80;88.40;;;;;;5245367;27;20456;-94
2024/04/23 06:31:30;;;;;;;17.65;12.90;;;5.90;87.60;;;;;;5263950;27;20018;-95
2024/04/23 06:33:58;;;;;;;;;;;5.90;85.30;;;;;;5274109;27;20326;-95
2024/04/23 06:36:26;;;;;;;17.77;13.30;;;6.00;85.20;;;;;;5269327;27;19927;-94
2024/04/23 06:38:53;;;;;;;16.92;12.73;;;6.10;83.30;;;;;;5260732;27;20073;-94
2024/04/23 06:41:22;;;;;;;17.40;12.88;;;6.10;81.70;;;;;;5267642;26;20088;-94
2024/04/23 06:43:49;;;;;;;17.85;13.13;;;6.20;82.40;;;;;;5300467;27;20026;-93
2024/04/23 06:46:16;;;;;;;20.00;13.73;;;6.30;82.50;;;;;;5287657;27;20002;-94
2024/04/23 06:48:44;;;;;;;18.13;12.80;;;6.40;81.10;;;;;;5269453;27;20074;-96
2024/04/23 06:51:11;;;;;;;22.25;13.98;;;6.50;80.20;;;;;;5280507;27;20003;-94
2024/04/23 06:53:40;;;;;;;20.15;13.35;;;6.60;79.90;;;;;;5273537;27;20024;-94
2024/04/23 06:56:07;;;;;;;16.98;12.82;;;6.60;79.80;;;;;;5274098;27;20003;-95
2024/04/23 06:58:37;;;;;;;18.08;13.45;;;6.70;78.60;;;;;;5247949;27;20003;-94
2024/04/23 07:01:04;;;;;;;15.68;12.27;;;6.70;79.60;;;;;;5278956;27;20027;-94
2024/04/23 07:03:31;;;;;;;17.38;12.27;;;6.70;79.50;;;;;;5278716;27;20027;-94
2024/04/23 07:05:58;;;;;;;15.43;11.88;;;6.70;78.80;;;;;;5275965;27;19999;-94
2024/04/23 07:08:28;;;;;;;15.27;11.63;;;6.70;78.50;;;;;;5286557;27;20003;-94
2024/04/23 07:10:56;;;;;;;18.63;11.68;;;6.70;77.30;;;;;;5268447;27;20008;-94
2024/04/23 07:13:23;;;;;;;15.88;11.95;;;6.70;77.10;;;;;;5268125;27;20336;-95
2024/04/23 07:15:53;;;;;;;13.35;10.75;;;6.80;77.00;;;;;;5282086;27;19995;-94
2024/04/23 07:18:20;;;;;;;17.40;12.07;;;6.70;76.00;;;;;;5279250;27;20501;-95
2024/04/23 07:20:47;;;;;;;15.32;12.38;;;6.60;76.30;;;;;;5277889;27;20023;-94
2024/04/23 07:23:14;;;;;;;16.42;12.45;;;6.60;76.40;;;;;;5262932;27;20435;-94
2024/04/23 07:25:49;;;;;;;16.98;12.48;;;6.50;77.60;;;;;;5255058;27;20031;-95
2024/04/23 07:28:17;;;;;;;17.58;13.15;;;6.50;77.60;;;;;;5283513;27;20013;-95
2024/04/23 07:30:44;;;;;;;15.70;12.77;;;6.50;79.40;;;;;;5281565;27;20400;-93
2024/04/23 07:33:14;;;;;;;17.20;13.07;;;6.40;78.00;;;;;;5282659;27;20003;-95
2024/04/23 07:35:43;;;;;;;17.92;12.95;;;6.20;78.40;;;;;;5275026;27;19998;-94
2024/04/23 07:38:10;;;;;;;17.92;12.20;;;6.20;79.20;;;;;;5282407;27;20442;-94
2024/04/23 07:40:39;;;;;;;16.38;13.02;;;6.10;79.80;;;;;;5281384;27;20041;-94
2024/04/23 07:43:06;;;;;;;15.90;12.55;;;6.00;80.20;;;;;;5269211;27;20427;-94
2024/04/23 07:45:33;;;;;;;13.88;11.68;;;6.00;80.90;;;;;;5247688;27;20479;-95
2024/04/23 07:48:01;;;;;;;17.00;12.52;;;6.00;81.60;;;;;;5268164;27;20015;-93
2024/04/23 07:50:31;;;;;;;17.55;12.18;;;6.00;81.40;;;;;;5269711;27;20014;-94
2024/04/23 07:53:03;;;;;;;16.20;12.15;;;6.00;83.00;;;;;;5247966;27;20006;-95
2024/04/23 07:55:30;;;;;;;13.82;11.15;;;6.10;83.40;;;;;;5252305;27;19999;-94
2024/04/23 07:57:58;;;;;;;12.55;10.25;;;6.10;82.10;;;;;;5266868;27;19998;-93
2024/04/23 08:00:29;;;;;;;19.55;11.55;;;6.20;81.80;;;;;;5260740;27;20446;-94
2024/04/23 08:03:05;;;;;;;11.20;9.55;;;6.30;81.40;;;;;;5248952;27;20016;-94
2024/04/23 08:05:35;;;;;;;13.27;10.35;;;6.40;79.90;;;;;;5272065;27;20010;-95
2024/04/23 08:08:02;;;;;;;15.45;11.68;;;6.50;80.00;;;;;;5286579;27;20072;-95
2024/04/23 08:10:31;;;;;;;12.40;9.93;;;6.60;79.00;;;;;;5283352;27;20006;-94
2024/04/23 08:12:58;;;;;;;15.65;10.98;;;6.70;79.40;;;;;;5267722;27;20012;-95
2024/04/23 08:15:25;;;;;;;16.00;10.55;;;6.70;78.20;;;;;;5284989;27;20009;-95
2024/04/23 08:17:57;;;;;;;13.57;10.63;;;6.70;78.90;;;;;;5269815;27;20112;-95
2024/04/23 08:20:24;;;;;;;15.88;11.32;;;6.70;77.40;;;;;;5279018;27;20039;-94
2024/04/23 08:22:59;;;;;;;14.00;11.18;;;6.70;78.10;;;;;;5274837;27;20031;-94
2024/04/23 08:25:29;;;;;;;15.18;11.27;;;6.70;78.80;;;;;;5265141;27;20010;-93
2024/04/23 08:27:58;;;;;;;15.02;10.55;;;6.80;78.30;;;;;;5247223;27;20342;-94
2024/04/23 08:30:25;;;;;;;14.02;10.27;;;6.80;76.50;;;;;;5265335;27;20011;-94
2024/04/23 08:32:53;;;;;;;13.73;9.88;;;6.80;76.50;;;;;;5280464;27;20002;-94
2024/04/23 08:35:20;;;;;;;13.35;10.13;;;6.80;76.90;;;;;;5284386;27;19994;-94
2024/04/23 08:37:50;;;;;;;17.10;11.10;;;6.80;76.80;;;;;;5253433;27;20010;-94
2024/04/23 08:40:17;;;;;;;14.90;11.00;;;6.90;76.80;;;;;;5283516;27;20009;-94
2024/04/23 08:42:48;;;;;;;14.20;10.27;;;6.90;76.80;;;;;;5280518;27;20010;-93
2024/04/23 08:45:17;;;;;;;14.85;10.65;;;7.00;77.80;;;;;;5277088;27;20027;-96
2024/04/23 08:47:45;;;;;;;15.07;11.10;;;6.90;75.70;;;;;;5274555;27;20054;-93
2024/04/23 08:50:16;;;;;;;15.32;11.50;;;6.80;76.90;;;;;;5248016;27;19995;-95
2024/04/23 08:52:48;;;;;;;14.85;11.60;;;7.00;77.30;;;;;;5309023;27;20076;-94
2024/04/23 08:55:18;;;;;;;15.88;11.50;;;7.10;76.20;;;;;;5282509;27;19998;-95
2024/04/23 08:57:45;;;;;;;15.45;11.68;;;7.30;76.10;;;;;;5274408;27;20011;-95
2024/04/23 09:00:13;;;;;;;16.00;11.18;;;7.40;76.40;;;;;;5254741;27;20018;-94
2024/04/23 09:02:42;;;;;;;15.00;11.70;;;7.40;74.10;;;;;;5253204;27;20397;-95
2024/04/23 09:05:11;;;;;;;16.02;10.95;;;7.50;75.00;;;;;;5258803;27;20010;-94
2024/04/23 09:07:38;;;;;;;17.42;12.05;;;7.60;74.40;;;;;;5246147;27;20008;-94
2024/04/23 09:13:47;;;;;;;16.73;12.55;;;7.70;74.20;;;;;;5281330;27;20063;-95
2024/04/23 09:16:14;;;;;;;15.70;12.07;;;7.80;73.10;;;;;;5277929;27;20013;-94
2024/04/23 09:18:41;;;;;;;18.23;12.43;;;7.90;73.60;;;;;;5248035;27;20003;-94
2024/04/23 09:21:09;;;;;;;17.45;12.88;;;8.00;73.00;;;;;;5274554;27;20073;-93
2024/04/23 09:23:38;;;;;;;16.77;12.55;;;8.10;73.30;;;;;;5246416;27;20385;-94
2024/04/23 09:26:07;;;;;;;16.70;12.95;;;8.20;72.70;;;;;;5279812;27;20010;-95
2024/04/23 09:28:35;;;;;;;18.17;12.68;;;8.20;72.30;;;;;;5285653;27;19994;-95
2024/04/23 09:31:03;;;;;;;21.45;14.60;;;8.00;71.50;;;;;;5271754;27;20012;-95
2024/04/23 09:33:31;;;;;;;18.55;13.93;;;7.80;72.50;;;;;;5262139;27;20002;-95
2024/04/23 09:35:59;;;;;;;20.80;14.25;;;7.80;72.90;;;;;;5259945;27;20006;-94
2024/04/23 09:38:26;;;;;;;21.20;14.65;;;7.80;74.00;;;;;;5278215;27;20002;-93
2024/04/23 09:40:53;;;;;;;19.35;13.85;;;7.80;74.00;;;;;;5279351;27;20003;-95
2024/04/23 09:43:23;;;;;;;19.92;14.23;;;7.80;74.00;;;;;;5283008;27;20006;-95
2024/04/23 09:45:50;;;;;;;17.83;13.55;;;7.90;74.70;;;;;;5262529;27;20035;-95
2024/04/23 09:48:38;;;;;;;22.50;14.05;;;8.00;73.70;;;;;;5276592;27;20011;-95
2024/04/23 09:51:07;;;;;;;21.88;14.27;;;8.00;73.30;;;;;;5278858;27;20448;-95
2024/04/23 09:53:35;;;;;;;19.65;14.75;;;;;;;;;;5279371;27;20072;-95
2024/04/23 09:56:04;;;;;;;19.27;13.38;;;8.40;71.90;;;;;;5272686;27;20014;-95
2024/04/23 09:58:33;;;;;;;17.20;13.25;;;8.70;73.00;;;;;;5274129;27;20483;-95
2024/04/23 10:01:01;;;;;;;19.40;13.60;;;9.20;71.00;;;;;;5264672;27;19999;-95
2024/04/23 10:03:29;;;;;;;18.48;13.93;;;9.50;68.70;;;;;;5260040;27;20007;-95
2024/04/23 10:06:04;;;;;;;18.83;15.13;;;9.70;67.60;;;;;;5263542;27;20026;-95
2024/04/23 10:08:44;;;;;;;19.48;14.75;;;9.70;64.90;;;;;;5270400;27;20027;-95
2024/04/23 10:11:16;;;;;;;20.38;15.43;;;9.50;64.60;;;;;;5246713;27;19999;-95
2024/04/23 10:13:52;;;;;;;21.23;14.77;;;9.30;65.90;;;;;;5273551;27;20454;-94
2024/04/23 10:16:30;;;;;;;21.17;14.98;;;9.10;65.90;;;;;;5248512;27;20073;-94
2024/04/23 10:19:05;;;;;;;24.30;16.50;;;9.00;66.70;;;;;;5244487;27;20003;-95
2024/04/23 10:21:39;;;;;;;21.55;15.32;;;8.80;66.90;;;;;;5277589;27;20034;-95
2024/04/23 10:24:08;;;;;;;;;;;8.70;69.40;;;;;;5273856;27;20027;-95
2024/04/23 10:26:48;;;;;;;23.02;15.77;;;8.80;70.00;;;;;;5252397;27;19998;-94
2024/04/23 10:29:15;;;;;;;25.55;15.98;;;8.90;70.80;;;;;;5247453;27;20069;-95
2024/04/23 10:31:43;;;;;;;22.90;16.05;;;9.00;71.20;;;;;;5259792;27;20030;-95
2024/04/23 10:34:15;;;;;;;24.38;15.95;;;9.10;69.40;;;;;;5280172;27;19998;-95
2024/04/23 10:36:49;;;;;;;25.50;16.90;;;9.10;69.70;;;;;;5270504;27;20010;-94
2024/04/23 10:39:21;;;;;;;22.83;15.25;;;9.20;69.70;;;;;;5278559;27;20397;-95
2024/04/23 10:41:53;;;;;;;23.27;16.15;;;9.30;69.30;;;;;;5262951;27;20007;-95
2024/04/23 10:44:21;;;;;;;23.13;16.00;;;9.40;69.30;;;;;;5282145;27;20018;-94
2024/04/23 10:46:49;;;;;;;24.88;16.58;;;9.50;68.80;;;;;;5265435;27;20010;-94
2024/04/23 10:49:16;;;;;;;25.75;16.85;;;9.50;69.40;;;;;;5273229;27;20007;-94
2024/04/23 10:51:47;;;;;;;23.25;16.70;;;9.50;69.00;;;;;;5275058;27;20010;-94
2024/04/23 10:54:15;;;;;;;22.90;16.25;;;9.60;68.20;;;;;;5254446;27;19999;-94
2024/04/23 10:56:42;;;;;;;23.20;16.65;;;9.60;68.60;;;;;;5244929;27;19999;-94
2024/04/23 10:59:17;;;;;;;22.65;16.23;;;9.60;66.80;;;;;;5245616;27;20129;-95
2024/04/23 11:02:00;;;;;;;25.75;15.82;;;9.70;68.70;;;;;;5271200;27;20072;-95
2024/04/23 11:04:40;;;;;;;28.30;18.03;;;9.80;66.30;;;;;;5278188;27;20011;-93
2024/04/23 11:07:22;;;;;;;25.50;17.48;;;10.00;66.30;;;;;;5273263;27;20074;-94
2024/04/23 11:09:54;;;;;;;24.55;16.60;;;10.30;67.30;;;;;;5257506;27;20450;-93
2024/04/23 11:12:25;;;;;;;26.77;17.52;;;10.70;65.30;;;;;;5289849;26;20017;-94
2024/04/23 11:14:54;;;;;;;22.20;15.55;;;10.90;64.00;;;;;;5278481;27;20369;-93
2024/04/23 11:17:21;;;;;;;23.67;15.60;;;11.20;63.60;;;;;;5304877;26;20452;-94
2024/04/23 11:19:51;;;;;;;24.38;16.13;;;11.40;62.60;;;;;;5244301;27;20003;-94
2024/04/23 11:22:25;;;;;;;23.27;15.77;;;11.60;62.30;;;;;;5247507;27;20003;-94
2024/04/23 11:24:54;;;;;;;22.63;16.53;;;11.60;59.50;;;;;;5244710;27;19995;-93
2024/04/23 11:27:23;;;;;;;21.60;15.07;;;11.70;60.80;;;;;;5267944;27;20013;-94
2024/04/23 11:29:52;;;;;;;19.58;15.13;;;11.90;60.60;;;;;;5251896;27;20349;-92
2024/04/23 11:32:19;;;;;;;22.10;15.45;;;12.10;59.40;;;;;;5257084;27;20076;-94
2024/04/23 11:34:49;;;;;;;19.85;14.43;;;12.20;57.90;;;;;;5281841;27;19998;-93
2024/04/23 11:37:24;;;;;;;22.92;15.93;;;12.20;57.70;;;;;;5277936;27;20502;-94
2024/04/23 11:40:01;;;;;;;22.98;15.65;;;12.30;58.40;;;;;;5271823;27;20026;-93
2024/04/23 11:42:30;;;;;;;20.80;14.75;;;12.30;57.80;;;;;;5286596;27;19993;-93
2024/04/23 11:45:02;;;;;;;19.77;14.50;;;12.20;57.50;;;;;;5281425;27;20006;-94
2024/04/23 11:47:29;;;;;;;23.35;15.38;;;12.30;58.10;;;;;;5280747;27;19999;-94
2024/04/23 11:50:02;;;;;;;21.63;15.27;;;12.30;57.70;;;;;;5275093;27;20051;-95
2024/04/23 11:52:30;;;;;;;21.83;14.63;;;12.40;57.10;;;;;;5263274;27;20049;-93
2024/04/23 11:54:57;;;;;;;20.77;14.90;;;12.60;57.10;;;;;;5247313;27;20019;-95
2024/04/23 11:57:27;;;;;;;19.95;13.73;;;12.70;57.40;;;;;;5273755;27;20013;-95
2024/04/23 11:59:54;;;;;;;18.85;14.25;;;13.00;57.20;;;;;;5248748;27;20074;-95
2024/04/23 12:02:23;;;;;;;20.35;14.52;;;13.30;57.30;;;;;;5284220;27;20010;-94
2024/04/23 12:04:51;;;;;;;21.48;14.40;;;13.70;56.60;;;;;;5263666;27;19999;-94
2024/04/23 12:07:19;;;;;;;23.17;15.00;;;13.90;56.20;;;;;;5277964;27;20018;-93
2024/04/23 12:09:50;;;;;;;22.42;15.57;;;14.10;55.40;;;;;;5277832;27;20084;-94
2024/04/23 12:12:19;;;;;;;18.80;14.05;;;14.40;61.60;;;;;;5278072;27;20010;-95
2024/04/23 12:14:47;;;;;;;20.10;14.52;;;14.60;55.90;;;;;;5297881;27;20454;-95
2024/04/23 12:17:14;;;;;;;17.67;13.43;;;14.80;53.30;;;;;;5266953;27;20390;-94
2024/04/23 12:19:42;;;;;;;19.15;13.60;;;14.80;53.10;;;;;;5262667;27;20348;-94
2024/04/23 12:22:16;;;;;;;21.98;15.18;;;14.80;51.70;;;;;;5262473;27;20448;-95
2024/04/23 12:24:43;;;;;;;;;;;14.70;52.00;;;;;;5301476;27;20006;-94
2024/04/23 12:27:10;;;;;;;21.40;14.68;;;14.60;52.40;;;;;;5281680;27;19997;-94
2024/04/23 12:29:44;;;;;;;20.30;14.88;;;14.40;51.50;;;;;;5279732;27;20042;-95
2024/04/23 12:32:11;;;;;;;21.70;15.45;;;14.20;53.00;;;;;;5282065;27;20030;-96
2024/04/23 12:34:38;;;;;;;21.00;13.98;;;14.20;53.90;;;;;;5280446;27;20514;-96
2024/04/23 12:37:06;;;;;;;22.48;15.95;;;14.30;53.70;;;;;;5277608;27;20010;-96
2024/04/23 12:39:33;;;;;;;24.00;16.33;;;14.50;54.10;;;;;;5280478;27;20442;-95
2024/04/23 12:42:12;;;;;;;23.63;16.33;;;14.50;52.70;;;;;;5274148;27;20010;-96
2024/04/23 12:44:40;;;;;;;22.08;16.23;;;14.50;53.60;;;;;;5254907;27;20438;-96
2024/04/23 12:47:09;;;;;;;23.10;15.35;;;14.40;53.60;;;;;;5280579;27;20006;-96
2024/04/23 12:49:37;;;;;;;23.95;16.88;;;14.40;53.60;;;;;;5268711;27;19999;-95
2024/04/23 12:52:04;;;;;;;22.40;15.82;;;14.30;53.70;;;;;;5274577;27;20003;-96
2024/04/23 12:54:32;;;;;;;23.65;17.05;;;14.30;54.00;;;;;;5270467;27;20035;-95
2024/04/23 12:57:02;;;;;;;25.80;17.83;;;14.30;54.00;;;;;;5293130;27;20009;-96
2024/04/23 12:59:30;;;;;;;21.95;16.70;;;14.30;53.70;;;;;;5279349;27;20035;-95
2024/04/23 13:01:59;;;;;;;26.95;16.83;;;14.30;54.20;;;;;;5268751;27;20017;-96
2024/04/23 13:04:26;;;;;;;23.10;16.40;;;14.30;53.40;;;;;;5281903;27;20014;-95
2024/04/23 13:06:53;;;;;;;22.52;16.48;;;14.30;53.00;;;;;;5280479;27;20045;-96